createdAt,value
2018-06-04T00:01:11.831Z,101324.83
2018-06-04T00:03:40.080Z,101320.56
2018-06-04T00:06:08.562Z,101326.87
2018-06-04T00:08:36.920Z,101330.33
2018-06-04T00:11:05.463Z,101322.00
2018-06-04T00:13:33.887Z,101323.14
2018-06-04T00:16:02.300Z,101322.30
2018-06-04T00:18:30.787Z,101320.06
2018-06-04T00:20:59.310Z,101316.89
2018-06-04T00:23:28.369Z,101321.44
2018-06-04T00:25:56.773Z,101320.08
2018-06-04T00:28:25.314Z,101319.27
2018-06-04T00:30:53.635Z,101319.20
2018-06-04T00:33:22.277Z,101319.48
2018-06-04T00:35:50.840Z,101313.94
2018-06-04T00:38:19.383Z,101309.00
2018-06-04T00:40:48.114Z,101303.80
2018-06-04T00:43:16.521Z,101309.00
2018-06-04T00:45:45.052Z,101302.73
2018-06-04T00:48:13.477Z,101299.14
2018-06-04T00:50:41.841Z,101301.37
2018-06-04T00:53:10.447Z,101296.17
2018-06-04T00:55:55.932Z,101304.45
2018-06-04T00:58:24.519Z,101299.40
2018-06-04T01:00:53.106Z,101295.14
2018-06-04T01:03:21.615Z,101290.77
2018-06-04T01:05:50.273Z,101286.36
2018-06-04T01:08:18.781Z,101284.48
2018-06-04T01:10:47.102Z,101281.95
2018-06-04T01:13:15.601Z,101281.84
2018-06-04T01:15:44.286Z,101278.47
2018-06-04T01:18:12.850Z,101278.58
2018-06-04T01:20:41.335Z,101283.10
2018-06-04T01:23:09.942Z,101281.67
2018-06-04T01:25:38.655Z,101274.42
2018-06-04T01:28:07.001Z,101283.55
2018-06-04T01:30:35.306Z,101279.73
2018-06-04T01:33:03.889Z,101278.09
2018-06-04T01:35:32.328Z,101273.84
2018-06-04T01:38:00.846Z,101274.92
2018-06-04T01:40:29.150Z,101278.97
2018-06-04T01:42:57.859Z,101273.77
2018-06-04T01:45:26.382Z,101273.52
2018-06-04T01:47:54.803Z,101272.33
2018-06-04T01:50:23.090Z,101269.84
2018-06-04T01:52:51.700Z,101271.72
2018-06-04T01:55:20.447Z,101271.83
2018-06-04T01:57:49.062Z,101274.53
2018-06-04T02:00:17.489Z,101271.03
2018-06-04T02:02:46.024Z,101271.72
2018-06-04T02:05:14.611Z,101267.53
2018-06-04T02:07:43.101Z,101260.42
2018-06-04T02:10:11.790Z,101265.90
2018-06-04T02:12:40.252Z,101262.15
2018-06-04T02:15:08.775Z,101264.84
2018-06-04T02:17:37.642Z,101262.48
2018-06-04T02:20:06.187Z,101256.98
2018-06-04T02:22:34.791Z,101259.64
2018-06-04T02:25:03.434Z,101261.14
2018-06-04T02:27:31.738Z,101255.92
2018-06-04T02:30:00.261Z,101250.75
2018-06-04T02:32:28.827Z,101252.64
2018-06-04T02:34:57.354Z,101253.67
2018-06-04T02:37:26.015Z,101248.78
2018-06-04T02:39:54.397Z,101247.44
2018-06-04T02:42:22.971Z,101240.14
2018-06-04T02:44:51.645Z,101239.77
2018-06-04T02:47:20.183Z,101249.75
2018-06-04T02:49:48.458Z,101241.58
2018-06-04T02:52:16.999Z,101245.30
2018-06-04T02:54:45.404Z,101248.30
2018-06-04T02:57:14.125Z,101244.65
2018-06-04T02:59:42.425Z,101251.77
2018-06-04T03:02:10.852Z,101250.02
2018-06-04T03:04:39.513Z,101235.69
2018-06-04T03:07:07.999Z,101243.45
2018-06-04T03:09:36.860Z,101241.25
2018-06-04T03:12:05.521Z,101232.29
2018-06-04T03:14:34.151Z,101240.73
2018-06-04T03:17:02.678Z,101244.63
2018-06-04T03:19:31.040Z,101246.58
2018-06-04T03:21:59.419Z,101236.66
2018-06-04T03:24:27.786Z,101239.28
2018-06-04T03:26:56.438Z,101241.13
2018-06-04T03:29:25.151Z,101236.78
2018-06-04T03:31:53.755Z,101232.41
2018-06-04T03:34:22.180Z,101239.78
2018-06-04T03:36:50.626Z,101244.70
2018-06-04T03:39:19.029Z,101243.16
2018-06-04T03:41:47.615Z,101242.95
2018-06-04T03:44:16.249Z,101237.47
2018-06-04T03:46:44.758Z,101237.41
2018-06-04T03:49:13.429Z,101232.81
2018-06-04T03:51:42.297Z,101236.72
2018-06-04T03:54:10.903Z,101228.80
2018-06-04T03:56:39.359Z,101220.45
2018-06-04T03:59:08.014Z,101225.99
2018-06-04T04:01:36.335Z,101220.23
2018-06-04T04:04:05.156Z,101222.86
2018-06-04T04:06:33.488Z,101219.81
2018-06-04T04:09:01.904Z,101224.56
2018-06-04T04:11:30.749Z,101219.63
2018-06-04T04:13:59.181Z,101221.43
2018-06-04T04:16:27.733Z,101224.66
2018-06-04T04:18:56.445Z,101228.35
2018-06-04T04:21:25.321Z,101222.20
2018-06-04T04:23:53.808Z,101234.25
2018-06-04T04:26:22.204Z,101230.22
2018-06-04T04:28:50.829Z,101231.82
2018-06-04T04:31:19.483Z,101228.27
2018-06-04T04:33:48.293Z,101229.08
2018-06-04T04:36:16.790Z,101233.06
2018-06-04T04:38:45.288Z,101220.22
2018-06-04T04:41:13.932Z,101223.95
2018-06-04T04:43:42.306Z,101221.91
2018-06-04T04:46:10.860Z,101222.52
2018-06-04T04:48:39.375Z,101216.09
2018-06-04T04:51:07.895Z,101215.66
2018-06-04T04:53:36.504Z,101213.97
2018-06-04T04:56:04.901Z,101212.66
2018-06-04T04:58:33.384Z,101214.80
2018-06-04T05:01:01.807Z,101218.12
2018-06-04T05:03:30.266Z,101215.81
2018-06-04T05:05:58.555Z,101221.25
2018-06-04T05:08:26.899Z,101222.14
2018-06-04T05:10:55.256Z,101219.22
2018-06-04T05:13:23.806Z,101219.45
2018-06-04T05:15:52.628Z,101220.37
2018-06-04T05:18:21.312Z,101217.66
2018-06-04T05:20:49.796Z,101215.78
2018-06-04T05:23:18.324Z,101218.59
2018-06-04T05:25:46.848Z,101217.69
2018-06-04T05:28:15.708Z,101215.29
2018-06-04T05:30:44.302Z,101214.60
2018-06-04T05:33:12.889Z,101224.20
2018-06-04T05:35:42.707Z,101219.55
2018-06-04T05:38:11.333Z,101223.69
2018-06-04T05:40:39.955Z,101218.58
2018-06-04T05:43:08.399Z,101218.89
2018-06-04T05:45:36.954Z,101222.23
2018-06-04T05:48:05.569Z,101221.42
2018-06-04T05:50:36.746Z,101215.10
2018-06-04T05:53:08.305Z,101219.13
2018-06-04T05:55:36.817Z,101218.22
2018-06-04T05:58:05.445Z,101209.38
2018-06-04T06:00:34.330Z,101216.28
2018-06-04T06:03:03.330Z,101215.72
2018-06-04T06:05:31.799Z,101215.72
2018-06-04T06:08:00.292Z,101208.88
2018-06-04T06:10:35.731Z,101208.57
2018-06-04T06:13:04.391Z,101203.98
2018-06-04T06:15:32.862Z,101198.82
2018-06-04T06:18:01.546Z,101197.06
2018-06-04T06:20:30.244Z,101189.39
2018-06-04T06:22:58.680Z,101180.13
2018-06-04T06:25:27.364Z,101181.30
2018-06-04T06:27:56.212Z,101188.28
2018-06-04T06:30:25.085Z,101183.86
2018-06-04T06:32:53.784Z,101181.89
2018-06-04T06:35:22.344Z,101186.22
2018-06-04T06:37:50.873Z,101189.59
2018-06-04T06:40:19.434Z,101185.31
2018-06-04T06:42:47.914Z,101182.59
2018-06-04T06:45:16.571Z,101183.19
2018-06-04T06:47:45.093Z,101188.06
2018-06-04T06:50:13.759Z,101188.70
2018-06-04T06:52:41.962Z,101184.66
2018-06-04T06:55:12.024Z,101187.09
2018-06-04T06:57:40.628Z,101184.78
2018-06-04T07:00:09.294Z,101188.32
2018-06-04T07:02:43.533Z,101186.81
2018-06-04T07:05:11.893Z,101192.77
2018-06-04T07:07:40.366Z,101181.21
2018-06-04T07:10:08.679Z,101182.05
2018-06-04T07:12:37.124Z,101185.66
2018-06-04T07:15:05.566Z,101181.86
2018-06-04T07:17:33.908Z,101193.64
2018-06-04T07:20:02.368Z,101184.45
2018-06-04T07:22:30.911Z,101182.98
2018-06-04T07:24:59.141Z,101182.42
2018-06-04T07:27:27.507Z,101178.73
2018-06-04T07:29:55.910Z,101177.55
2018-06-04T07:32:24.223Z,101181.14
2018-06-04T07:34:52.833Z,101179.89
2018-06-04T07:37:21.304Z,101178.81
2018-06-04T07:39:49.711Z,101173.38
2018-06-04T07:42:18.073Z,101173.47
2018-06-04T07:44:46.699Z,101175.17
2018-06-04T07:47:15.075Z,101176.91
2018-06-04T07:49:43.419Z,101174.83
2018-06-04T07:52:11.650Z,101174.69
2018-06-04T07:54:40.198Z,101175.25
2018-06-04T07:57:08.810Z,101175.60
2018-06-04T07:59:37.114Z,101171.53
2018-06-04T08:02:06.146Z,101175.94
2018-06-04T08:04:34.735Z,101174.17
2018-06-04T08:07:03.110Z,101170.53
2018-06-04T08:09:31.485Z,101167.91
2018-06-04T08:12:00.079Z,101164.08
2018-06-04T08:14:28.479Z,101154.05
2018-06-04T08:16:56.892Z,101160.22
2018-06-04T08:19:25.414Z,101157.49
2018-06-04T08:21:53.795Z,101154.22
2018-06-04T08:24:22.285Z,101148.08
2018-06-04T08:26:50.670Z,101140.67
2018-06-04T08:29:19.197Z,101142.10
2018-06-04T08:31:47.555Z,101137.33
2018-06-04T08:34:15.915Z,101137.86
2018-06-04T08:36:44.318Z,101140.44
2018-06-04T08:39:12.675Z,101131.66
2018-06-04T08:41:41.034Z,101130.05
2018-06-04T08:44:09.247Z,101131.91
2018-06-04T08:46:37.547Z,101126.59
2018-06-04T08:49:05.846Z,101131.87
2018-06-04T08:51:34.264Z,101128.90
2018-06-04T08:54:02.719Z,101131.59
2018-06-04T08:56:31.167Z,101128.95
2018-06-04T08:58:59.653Z,101128.81
2018-06-04T09:01:28.118Z,101124.61
2018-06-04T09:03:56.551Z,101121.15
2018-06-04T09:06:24.915Z,101121.40
2018-06-04T09:08:53.343Z,101120.61
2018-06-04T09:11:21.839Z,101115.28
2018-06-04T09:13:50.259Z,101114.97
2018-06-04T09:16:18.771Z,101111.22
2018-06-04T09:18:47.141Z,101107.47
2018-06-04T09:21:15.622Z,101108.41
2018-06-04T09:23:44.044Z,101113.34
2018-06-04T09:26:12.471Z,101115.22
2018-06-04T09:28:40.802Z,101110.91
2018-06-04T09:31:09.235Z,101111.44
2018-06-04T09:33:37.867Z,101113.06
2018-06-04T09:36:06.047Z,101116.22
2018-06-04T09:38:34.428Z,101112.81
2018-06-04T09:41:02.875Z,101116.37
2018-06-04T09:43:31.170Z,101117.63
2018-06-04T09:45:59.575Z,101109.16
2018-06-04T09:48:28.125Z,101113.94
2018-06-04T09:50:56.583Z,101107.94
2018-06-04T09:53:24.916Z,101113.61
2018-06-04T09:55:53.558Z,101101.27
2018-06-04T09:58:21.841Z,101107.87
2018-06-04T10:00:50.132Z,101112.66
2018-06-04T10:03:18.529Z,101108.47
2018-06-04T10:05:48.925Z,101106.17
2018-06-04T10:08:17.892Z,101100.73
2018-06-04T10:10:47.680Z,101106.52
2018-06-04T10:13:17.082Z,101097.97
2018-06-04T10:15:46.486Z,101105.30
2018-06-04T10:18:14.923Z,101096.91
2018-06-04T10:20:43.456Z,101098.55
2018-06-04T10:23:11.758Z,101101.82
2018-06-04T10:25:40.126Z,101094.49
2018-06-04T10:28:08.519Z,101081.30
2018-06-04T10:30:36.917Z,101089.94
2018-06-04T10:33:05.412Z,101083.88
2018-06-04T10:35:33.891Z,101098.35
2018-06-04T10:38:02.270Z,101100.31
2018-06-04T10:40:30.699Z,101089.48
2018-06-04T10:42:59.020Z,101088.60
2018-06-04T10:45:27.539Z,101090.32
2018-06-04T10:47:56.045Z,101089.59
2018-06-04T10:50:24.502Z,101091.47
2018-06-04T10:52:53.013Z,101098.70
2018-06-04T10:55:21.361Z,101089.42
2018-06-04T10:57:51.295Z,101092.30
2018-06-04T11:00:19.532Z,101089.23
2018-06-04T11:02:48.099Z,101086.91
2018-06-04T11:05:16.544Z,101093.11
2018-06-04T11:07:45.006Z,101089.81
2018-06-04T11:10:13.746Z,101085.94
2018-06-04T11:12:42.327Z,101077.11
2018-06-04T11:15:10.673Z,101079.40
2018-06-04T11:17:39.125Z,101077.30
2018-06-04T11:20:07.460Z,101077.60
2018-06-04T11:22:35.973Z,101080.75
2018-06-04T11:25:04.345Z,101071.56
2018-06-04T11:27:32.750Z,101070.97
2018-06-04T11:30:01.148Z,101067.73
2018-06-04T11:32:29.530Z,101069.83
2018-06-04T11:34:58.053Z,101061.99
2018-06-04T11:37:26.428Z,101054.13
2018-06-04T11:39:54.785Z,101058.81
2018-06-04T11:42:23.112Z,101061.59
2018-06-04T11:44:51.497Z,101062.67
2018-06-04T11:47:19.941Z,101063.38
2018-06-04T11:49:48.391Z,101057.80
2018-06-04T11:52:16.858Z,101058.16
2018-06-04T11:54:45.274Z,101061.33
2018-06-04T11:57:13.644Z,101052.06
2018-06-04T11:59:43.081Z,101054.15
2018-06-04T12:02:12.855Z,101058.30
2018-06-04T12:04:41.294Z,101056.55
2018-06-04T12:09:34.130Z,101050.60
2018-06-04T12:12:02.771Z,101049.45
2018-06-04T12:14:31.156Z,101047.88
2018-06-04T12:16:59.670Z,101049.94
2018-06-04T12:19:28.159Z,101046.88
2018-06-04T12:21:56.747Z,101038.75
2018-06-04T12:24:25.643Z,101046.20
2018-06-04T12:26:54.206Z,101045.63
2018-06-04T12:29:22.698Z,101036.25
2018-06-04T12:31:51.044Z,101043.19
2018-06-04T12:34:19.619Z,101042.17
2018-06-04T12:36:48.158Z,101037.35
2018-06-04T12:39:16.642Z,101052.02
2018-06-04T12:41:45.169Z,101037.95
2018-06-04T12:44:15.673Z,101041.21
2018-06-04T12:46:44.205Z,101040.23
2018-06-04T12:49:12.959Z,101040.64
2018-06-04T12:51:41.285Z,101044.95
2018-06-04T12:54:10.684Z,101043.90
2018-06-04T12:56:39.556Z,101053.31
2018-06-04T12:59:07.973Z,101042.59
2018-06-04T13:01:36.715Z,101039.18
2018-06-04T13:04:05.348Z,101033.17
2018-06-04T13:06:33.894Z,101045.68
2018-06-04T13:09:03.726Z,101036.34
2018-06-04T13:11:32.544Z,101036.83
2018-06-04T13:14:01.741Z,101026.38
2018-06-04T13:16:30.384Z,101029.28
2018-06-04T13:18:59.199Z,101028.77
2018-06-04T13:21:27.710Z,101026.21
2018-06-04T13:23:56.134Z,101027.30
2018-06-04T13:26:24.736Z,101018.02
2018-06-04T13:28:53.270Z,101018.19
2018-06-04T13:31:22.147Z,101018.19
2018-06-04T13:33:50.691Z,101012.16
2018-06-04T13:36:19.153Z,101017.31
2018-06-04T13:38:47.795Z,101010.45
2018-06-04T13:41:16.807Z,101004.77
2018-06-04T13:43:45.804Z,101006.61
2018-06-04T13:46:14.730Z,101008.45
2018-06-04T13:48:43.161Z,100996.91
2018-06-04T13:51:11.621Z,100987.06
2018-06-04T13:53:40.334Z,100995.05
2018-06-04T13:56:08.858Z,100993.20
2018-06-04T13:58:37.699Z,101001.57
2018-06-04T14:01:06.464Z,101003.77
2018-06-04T14:03:35.382Z,100998.47
2018-06-04T14:06:03.773Z,100997.25
2018-06-04T14:08:32.829Z,100990.05
2018-06-04T14:11:01.568Z,100993.20
2018-06-04T14:13:30.190Z,100980.52
2018-06-04T14:15:58.711Z,100976.34
2018-06-04T14:18:28.007Z,100979.72
2018-06-04T14:20:56.997Z,100985.48
2018-06-04T14:23:25.747Z,100989.20
2018-06-04T14:25:54.960Z,100980.96
2018-06-04T14:28:23.376Z,100981.56
2018-06-04T14:30:53.954Z,100986.73
2018-06-04T14:34:10.214Z,100987.32
2018-06-04T14:36:38.739Z,100984.42
2018-06-04T14:39:09.131Z,100974.46
2018-06-04T14:41:37.820Z,100967.42
2018-06-04T14:44:06.315Z,100975.81
2018-06-04T14:46:34.879Z,100985.33
2018-06-04T14:49:03.609Z,100970.25
2018-06-04T14:51:32.316Z,100976.13
2018-06-04T14:54:00.673Z,100969.44
2018-06-04T14:56:29.208Z,100973.94
2018-06-04T14:58:57.765Z,100982.73
2018-06-04T15:01:26.252Z,100987.67
2018-06-04T15:03:55.214Z,100975.06
2018-06-04T15:06:23.587Z,100974.73
2018-06-04T15:08:51.923Z,100971.73
2018-06-04T15:11:20.443Z,100974.89
2018-06-04T15:13:49.021Z,100969.87
2018-06-04T15:16:17.559Z,100967.47
2018-06-04T15:18:47.480Z,100960.84
2018-06-04T15:21:15.979Z,100963.19
2018-06-04T15:23:44.412Z,100956.56
2018-06-04T15:26:13.149Z,100950.84
2018-06-04T15:28:41.663Z,100948.47
2018-06-04T15:31:10.108Z,100945.30
2018-06-04T15:33:38.768Z,100948.53
2018-06-04T15:36:07.558Z,100943.03
2018-06-04T15:38:36.192Z,100942.20
2018-06-04T15:41:04.745Z,100942.42
2018-06-04T15:43:33.263Z,100939.41
2018-06-04T15:46:02.017Z,100938.80
2018-06-04T15:48:30.469Z,100931.20
2018-06-04T15:50:58.994Z,100934.12
2018-06-04T15:53:27.488Z,100942.09
2018-06-04T15:55:56.452Z,100926.56
2018-06-04T15:58:25.372Z,100926.05
2018-06-04T16:00:53.921Z,100931.52
2018-06-04T16:03:22.611Z,100926.25
2018-06-04T16:05:51.553Z,100920.45
2018-06-04T16:08:20.019Z,100920.70
2018-06-04T16:10:48.899Z,100917.73
2018-06-04T16:13:17.547Z,100911.53
2018-06-04T16:15:46.195Z,100915.25
2018-06-04T16:18:14.967Z,100916.80
2018-06-04T16:20:43.649Z,100915.09
2018-06-04T16:23:12.046Z,100909.08
2018-06-04T16:25:40.405Z,100924.14
2018-06-04T16:28:08.839Z,100915.77
2018-06-04T16:30:37.423Z,100918.72
2018-06-04T16:33:06.271Z,100906.67
2018-06-04T16:35:34.957Z,100903.69
2018-06-04T16:38:03.415Z,100904.61
2018-06-04T16:40:31.893Z,100904.23
2018-06-04T16:43:00.406Z,100902.08
2018-06-04T16:45:29.034Z,100897.85
2018-06-04T16:47:57.607Z,100893.08
2018-06-04T16:50:26.376Z,100892.31
2018-06-04T16:52:54.994Z,100893.77
2018-06-04T16:55:23.525Z,100889.43
2018-06-04T16:57:52.313Z,100887.91
2018-06-04T17:00:20.866Z,100888.70
2018-06-04T17:02:49.350Z,100887.72
2018-06-04T17:05:17.749Z,100893.05
2018-06-04T17:07:46.177Z,100882.58
2018-06-04T17:10:14.707Z,100888.31
2018-06-04T17:12:43.362Z,100890.14
2018-06-04T17:15:12.044Z,100885.11
2018-06-04T17:17:40.700Z,100890.22
2018-06-04T17:20:09.041Z,100882.38
2018-06-04T17:22:37.636Z,100880.94
2018-06-04T17:25:06.255Z,100882.13
2018-06-04T17:27:34.732Z,100882.66
2018-06-04T17:30:03.746Z,100877.09
2018-06-04T17:32:32.327Z,100883.52
2018-06-04T17:35:00.800Z,100881.63
2018-06-04T17:37:29.667Z,100878.72
2018-06-04T17:39:58.209Z,100876.86
2018-06-04T17:42:26.823Z,100878.64
2018-06-04T17:44:55.652Z,100881.25
2018-06-04T17:47:24.248Z,100869.97
2018-06-04T17:49:52.965Z,100879.45
2018-06-04T17:52:21.459Z,100877.75
2018-06-04T17:54:50.072Z,100875.78
2018-06-04T17:57:18.433Z,100876.28
2018-06-04T17:59:47.046Z,100884.41
2018-06-04T18:02:15.604Z,100880.56
2018-06-04T18:04:44.020Z,100891.83
2018-06-04T18:07:12.499Z,100882.67
2018-06-04T18:09:41.311Z,100895.13
2018-06-04T18:12:09.988Z,100892.69
2018-06-04T18:14:38.857Z,100894.99
2018-06-04T18:17:07.299Z,100902.97
2018-06-04T18:19:35.706Z,100902.77
2018-06-04T18:22:04.144Z,100910.23
2018-06-04T18:24:32.943Z,100904.50
2018-06-04T18:27:01.611Z,100903.89
2018-06-04T18:29:30.547Z,100907.17
2018-06-04T18:31:58.998Z,100914.27
2018-06-04T18:34:27.856Z,100914.97
2018-06-04T18:36:56.375Z,100912.52
2018-06-04T18:39:24.881Z,100918.59
2018-06-04T18:41:53.300Z,100923.47
2018-06-04T18:44:21.783Z,100914.49
2018-06-04T18:46:50.358Z,100924.21
2018-06-04T18:49:19.271Z,100916.05
2018-06-04T18:51:47.727Z,100921.72
2018-06-04T18:54:16.289Z,100921.23
2018-06-04T18:56:44.893Z,100928.18
2018-06-04T18:59:13.287Z,100924.84
2018-06-04T19:01:41.857Z,100933.97
2018-06-04T19:04:10.243Z,100939.91
2018-06-04T19:06:38.854Z,100938.78
2018-06-04T19:09:09.465Z,100932.98
2018-06-04T19:11:38.532Z,100934.22
2018-06-04T19:14:06.873Z,100940.45
2018-06-04T19:16:35.475Z,100943.03
2018-06-04T19:19:04.037Z,100944.41
2018-06-04T19:21:32.667Z,100943.27
2018-06-04T19:24:01.236Z,100939.03
2018-06-04T19:26:29.977Z,100954.05
2018-06-04T19:28:58.677Z,100957.42
2018-06-04T19:31:27.137Z,100966.88
2018-06-04T19:33:55.620Z,100964.31
2018-06-04T19:36:24.228Z,100968.95
2018-06-04T19:38:52.719Z,100971.03
2018-06-04T19:41:21.385Z,100971.66
2018-06-04T19:43:50.063Z,100979.52
2018-06-04T19:46:18.720Z,100981.31
2018-06-04T19:48:47.156Z,100984.16
2018-06-04T19:51:15.932Z,100994.66
2018-06-04T19:53:44.487Z,101000.69
2018-06-04T19:56:13.082Z,101000.44
2018-06-04T19:58:41.600Z,101006.58
2018-06-04T20:01:10.221Z,101008.28
2018-06-04T20:03:38.854Z,101008.05
2018-06-04T20:06:07.593Z,101011.47
2018-06-04T20:08:36.056Z,101008.73
2018-06-04T20:11:04.700Z,101011.77
2018-06-04T20:13:33.373Z,101014.28
2018-06-04T20:16:02.325Z,101019.60
2018-06-04T20:18:30.893Z,101019.60
2018-06-04T20:20:59.516Z,101017.46
2018-06-04T20:23:28.041Z,101016.11
2018-06-04T20:25:56.672Z,101028.19
2018-06-04T20:28:25.181Z,101026.80
2018-06-04T20:30:53.559Z,101032.83
2018-06-04T20:33:22.144Z,101035.18
2018-06-04T20:35:51.261Z,101035.98
2018-06-04T20:38:20.067Z,101036.44
2018-06-04T20:40:48.722Z,101039.04
2018-06-04T20:43:17.340Z,101040.84
2018-06-04T20:45:45.902Z,101046.81
2018-06-04T20:48:14.892Z,101037.20
2018-06-04T20:50:43.636Z,101041.98
2018-06-04T20:53:12.226Z,101043.84
2018-06-04T20:55:40.579Z,101053.46
2018-06-04T20:58:09.194Z,101054.05
2018-06-04T21:00:37.871Z,101055.86
2018-06-04T21:03:06.325Z,101061.98
2018-06-04T21:05:34.908Z,101063.58
2018-06-04T21:08:03.347Z,101065.62
2018-06-04T21:10:32.159Z,101065.52
2018-06-04T21:13:00.934Z,101069.70
2018-06-04T21:15:29.354Z,101068.80
2018-06-04T21:17:58.241Z,101067.47
2018-06-04T21:20:26.659Z,101066.56
2018-06-04T21:22:55.043Z,101060.25
2018-06-04T21:25:23.280Z,101068.36
2018-06-04T21:27:51.721Z,101067.37
2018-06-04T21:30:20.344Z,101071.30
2018-06-04T21:32:48.978Z,101067.03
2018-06-04T21:35:17.626Z,101073.00
2018-06-04T21:37:46.200Z,101073.58
2018-06-04T21:40:14.778Z,101077.98
2018-06-04T21:42:43.260Z,101081.23
2018-06-04T21:45:12.782Z,101089.67
2018-06-04T21:47:41.562Z,101093.35
2018-06-04T21:50:10.032Z,101090.63
2018-06-04T21:52:38.634Z,101087.03
2018-06-04T21:55:07.586Z,101091.52
2018-06-04T21:57:36.114Z,101095.20
2018-06-04T22:00:07.848Z,101097.98
2018-06-04T22:02:37.578Z,101096.80
2018-06-04T22:05:06.242Z,101096.80
2018-06-04T22:07:35.234Z,101100.71
2018-06-04T22:10:04.169Z,101104.42
2018-06-04T22:12:32.621Z,101105.05
2018-06-04T22:15:01.068Z,101109.34
2018-06-04T22:17:29.460Z,101107.64
2018-06-04T22:19:57.900Z,101106.20
2018-06-04T22:22:26.300Z,101108.83
2018-06-04T22:24:54.720Z,101114.59
2018-06-04T22:27:23.158Z,101114.78
2018-06-04T22:29:51.588Z,101114.78
2018-06-04T22:32:19.884Z,101118.23
2018-06-04T22:34:48.286Z,101122.74
2018-06-04T22:37:16.703Z,101118.11
2018-06-04T22:39:45.003Z,101121.69
2018-06-04T22:42:13.587Z,101119.88
2018-06-04T22:44:42.355Z,101120.39
2018-06-04T22:47:11.351Z,101121.23
2018-06-04T22:49:39.596Z,101116.89
2018-06-04T22:52:08.058Z,101116.75
2018-06-04T22:54:36.447Z,101118.95
2018-06-04T22:57:04.797Z,101121.89
2018-06-04T22:59:33.409Z,101120.48
2018-06-04T23:02:01.792Z,101124.30
2018-06-04T23:04:30.222Z,101121.40
2018-06-04T23:06:58.592Z,101122.67
2018-06-04T23:09:27.004Z,101122.70
2018-06-04T23:11:55.522Z,101117.92
2018-06-04T23:14:23.892Z,101127.52
2018-06-04T23:16:52.301Z,101127.38
2018-06-04T23:19:20.726Z,101132.31
2018-06-04T23:21:48.957Z,101133.45
2018-06-04T23:24:17.310Z,101125.28
2018-06-04T23:26:45.545Z,101131.07
2018-06-04T23:29:13.969Z,101134.34
2018-06-04T23:31:42.355Z,101131.57
2018-06-04T23:34:10.750Z,101127.33
2018-06-04T23:36:39.139Z,101123.11
2018-06-04T23:39:08.552Z,101128.57
2018-06-04T23:41:37.195Z,101116.05
2018-06-04T23:44:05.661Z,101123.66
2018-06-04T23:46:33.949Z,101116.95
2018-06-04T23:49:02.221Z,101123.81
2018-06-04T23:51:30.685Z,101118.07
2018-06-04T23:53:59.002Z,101114.77
2018-06-04T23:56:27.482Z,101116.21
2018-06-04T23:58:55.903Z,101121.75
